createdAt,value
2018-05-29T12:47:20.366Z,76.3
2018-05-29T12:48:10.489Z,77.1
2018-05-29T12:49:00.224Z,77.7
2018-05-29T12:49:50.583Z,75.1
2018-05-29T12:50:40.365Z,70.9
2018-05-29T12:51:30.686Z,65.3
2018-05-29T12:52:20.481Z,61.6
2018-05-29T12:53:10.848Z,59.6
2018-05-29T12:54:00.591Z,58.4
2018-05-29T12:54:50.975Z,57.6
2018-05-29T12:55:40.745Z,57
2018-05-29T12:56:30.778Z,56.7
2018-05-29T12:57:21.185Z,56.8
2018-05-29T12:58:11.203Z,57.3
2018-05-29T12:59:01.225Z,58.1
2018-05-29T12:59:51.387Z,59
2018-05-29T13:00:41.407Z,59.8
2018-05-29T13:01:31.454Z,60.6
2018-05-29T13:02:21.576Z,61.6
2018-05-29T13:03:11.580Z,62.6
2018-05-29T13:04:01.707Z,63.4
2018-05-29T13:04:51.711Z,64.3
2018-05-29T13:05:41.483Z,64.9
2018-05-29T13:06:31.853Z,65.6
2018-05-29T13:07:21.915Z,66.3
2018-05-29T13:08:11.137Z,66.9
2018-05-29T13:09:01.759Z,67.1
2018-05-29T13:09:51.805Z,66.8
2018-05-29T13:10:42.201Z,66.6
2018-05-29T13:11:31.676Z,66.8
2018-05-29T13:12:22.001Z,67
2018-05-29T13:13:12.088Z,67.3
2018-05-29T13:14:02.136Z,67.6
2018-05-29T13:14:52.492Z,67.9
2018-05-29T13:15:42.568Z,68.2
2018-05-29T13:16:32.117Z,68.6
2018-05-29T13:17:22.658Z,68.8
2018-05-29T13:18:12.754Z,69
2018-05-29T13:19:02.819Z,69.2
2018-05-29T13:19:52.865Z,69.4
2018-05-29T13:20:42.915Z,69.6
2018-05-29T13:21:32.701Z,69.6
2018-05-29T13:22:22.788Z,69.8
2018-05-29T13:23:13.137Z,70.1
2018-05-29T13:24:03.192Z,70.3
2018-05-29T13:24:53.239Z,70.1
2018-05-29T13:25:43.022Z,70.1
2018-05-29T13:26:33.381Z,69.9
2018-05-29T13:27:23.191Z,69.7
2018-05-29T13:28:13.518Z,69.4
2018-05-29T13:29:03.569Z,69.3
2018-05-29T13:29:53.637Z,69.2
2018-05-29T13:30:43.704Z,69.1
2018-05-29T13:31:33.492Z,69.1
2018-05-29T13:32:23.833Z,69.1
2018-05-29T13:33:13.608Z,69
2018-05-29T13:34:03.954Z,69
2018-05-29T13:34:54.019Z,68.9
2018-05-29T13:35:44.100Z,68.9
2018-05-29T13:36:34.163Z,68.9
2018-05-29T13:37:24.222Z,68.9
2018-05-29T13:38:14.273Z,68.9
2018-05-29T13:39:04.336Z,68.8
2018-05-29T13:39:54.403Z,68.8
2018-05-29T13:40:44.460Z,68.6
2018-05-29T13:41:34.246Z,68.5
2018-05-29T13:42:24.585Z,68.5
2018-05-29T13:43:13.816Z,68.4
2018-05-29T13:44:04.461Z,68.4
2018-05-29T13:44:54.483Z,68.3
2018-05-29T13:45:44.550Z,68.3
2018-05-29T13:46:34.906Z,68.1
2018-05-29T13:47:24.973Z,68.1
2018-05-29T13:48:15.082Z,68
2018-05-29T13:49:05.247Z,68
2018-05-29T13:49:55.150Z,68
2018-05-29T13:50:44.395Z,67.9
2018-05-29T13:51:35.282Z,67.8
2018-05-29T13:52:25.335Z,67.5
2018-05-29T13:53:15.148Z,67.3
2018-05-29T13:54:05.191Z,67
2018-05-29T13:54:55.540Z,66.6
2018-05-29T13:55:45.616Z,66.4
2018-05-29T13:56:35.460Z,66.1
2018-05-29T13:57:25.802Z,65.5
2018-05-29T13:58:15.800Z,65.1
2018-05-29T13:59:05.860Z,64.8
2018-05-29T13:59:55.646Z,64.4
2018-05-29T14:00:46.044Z,64.1
2018-05-29T14:01:35.806Z,63.8
2018-05-29T14:02:26.125Z,63.4
2018-05-29T14:03:16.204Z,63.2
2018-05-29T14:04:06.259Z,63.1
2018-05-29T14:04:56.325Z,62.9
2018-05-29T14:05:46.381Z,62.8
2018-05-29T14:06:36.490Z,62.7
2018-05-29T14:07:26.242Z,62.6
2018-05-29T14:08:16.282Z,62.4
2018-05-29T14:09:06.991Z,62.3
2018-05-29T14:09:56.691Z,62.2
2018-05-29T14:10:46.759Z,62.1
2018-05-29T14:11:36.835Z,62.1
2018-05-29T14:12:26.891Z,61.8
2018-05-29T14:13:16.977Z,61.6
2018-05-29T14:14:07.035Z,61.5
2018-05-29T14:14:57.205Z,61.4
2018-05-29T14:15:47.138Z,61.2
2018-05-29T14:16:37.211Z,60.9
2018-05-29T14:17:26.446Z,60.7
2018-05-29T14:18:17.369Z,60.6
2018-05-29T14:19:07.404Z,60.4
2018-05-29T14:19:57.496Z,60.1
2018-05-29T14:20:47.573Z,59.9
2018-05-29T14:21:37.592Z,59.8
2018-05-29T14:22:27.404Z,59.6
2018-05-29T14:23:17.745Z,59.4
2018-05-29T14:24:07.788Z,59.1
2018-05-29T14:24:57.570Z,58.8
2018-05-29T14:25:47.641Z,58.5
2018-05-29T14:26:37.709Z,58.3
2018-05-29T14:27:27.770Z,57.9
2018-05-29T14:28:18.139Z,57.7
2018-05-29T14:29:07.906Z,57.4
2018-05-29T14:29:58.235Z,57.1
2018-05-29T14:30:48.312Z,56.9
2018-05-29T14:31:38.382Z,56.8
2018-05-29T14:32:28.144Z,56.4
2018-05-29T14:33:18.482Z,56.2
2018-05-29T14:34:08.548Z,55.9
2018-05-29T14:34:58.611Z,55.6
2018-05-29T14:35:48.685Z,55.3
2018-05-29T14:36:38.755Z,55.1
2018-05-29T14:37:28.803Z,54.9
2018-05-29T14:38:18.596Z,54.8
2018-05-29T14:39:08.933Z,54.6
2018-05-29T14:39:58.724Z,54.3
2018-05-29T14:40:48.489Z,54
2018-05-29T14:41:39.109Z,53.8
2018-05-29T14:42:29.199Z,53.5
2018-05-29T14:43:19.270Z,53.3
2018-05-29T14:44:10.175Z,53.1
2018-05-29T14:44:59.382Z,52.8
2018-05-29T14:45:49.461Z,52.5
2018-05-29T14:46:39.516Z,52.3
2018-05-29T14:47:29.562Z,52.1
2018-05-29T14:48:19.371Z,51.9
2018-05-29T14:49:09.748Z,51.6
2018-05-29T14:49:59.760Z,51.3
2018-05-29T14:50:49.831Z,51
2018-05-29T14:51:39.888Z,50.8
2018-05-29T14:52:29.969Z,50.5
2018-05-29T14:53:20.040Z,50.3
2018-05-29T14:54:10.083Z,50
2018-05-29T14:55:00.146Z,49.8
2018-05-29T14:55:49.940Z,49.6
2018-05-29T14:56:40.004Z,49.3
2018-05-29T14:57:29.811Z,49.1
2018-05-29T14:58:20.439Z,48.8
2018-05-29T14:59:10.183Z,48.6
2018-05-29T15:00:00.534Z,48.3
2018-05-29T15:00:50.049Z,48
2018-05-29T15:01:40.668Z,47.8
2018-05-29T15:02:30.719Z,47.4
2018-05-29T15:03:20.534Z,47.2
2018-05-29T15:04:10.593Z,47
2018-05-29T15:05:00.921Z,46.8
2018-05-29T15:05:50.435Z,46.6
2018-05-29T15:06:41.038Z,46.4
2018-05-29T15:07:31.100Z,46.1
2018-05-29T15:08:20.457Z,45.8
2018-05-29T15:09:11.303Z,45.6
2018-05-29T15:10:01.308Z,45.3
2018-05-29T15:10:51.129Z,45
2018-05-29T15:11:41.445Z,44.8
2018-05-29T15:12:31.220Z,44.5
2018-05-29T15:13:21.581Z,44.3
2018-05-29T15:14:11.356Z,44.1
2018-05-29T15:15:01.418Z,43.9
2018-05-29T15:15:51.517Z,43.7
2018-05-29T15:16:41.843Z,43.4
2018-05-29T15:17:31.912Z,43.1
2018-05-29T15:18:21.965Z,42.9
2018-05-29T15:19:11.738Z,42.7
2018-05-29T15:20:01.807Z,42.6
2018-05-29T15:20:52.146Z,42.3
2018-05-29T15:21:42.186Z,42
2018-05-29T15:22:31.507Z,41.7
2018-05-29T15:23:21.853Z,41.5
2018-05-29T15:24:11.820Z,41.3
2018-05-29T15:25:02.879Z,41.1
2018-05-29T15:25:52.246Z,40.9
2018-05-29T15:26:42.029Z,40.6
2018-05-29T15:27:32.669Z,40.4
2018-05-29T15:28:22.751Z,40.3
2018-05-29T15:29:12.756Z,40.2
2018-05-29T15:30:02.554Z,40.1
2018-05-29T15:30:52.915Z,39.9
2018-05-29T15:31:42.960Z,39.8
2018-05-29T15:32:32.741Z,39.6
2018-05-29T15:33:23.380Z,39.3
2018-05-29T15:34:13.146Z,39.1
2018-05-29T15:35:03.277Z,38.9
2018-05-29T15:35:53.286Z,38.8
2018-05-29T15:36:43.334Z,38.6
2018-05-29T15:37:33.132Z,38.4
2018-05-29T15:38:23.188Z,38.2
2018-05-29T15:39:13.548Z,38
2018-05-29T15:40:03.611Z,37.8
2018-05-29T15:40:53.574Z,37.7
2018-05-29T15:41:43.472Z,37.6
2018-05-29T15:42:33.859Z,37.4
2018-05-29T15:43:23.596Z,37.3
2018-05-29T15:44:13.931Z,37.1
2018-05-29T15:45:04.003Z,36.9
2018-05-29T15:45:54.037Z,36.8
2018-05-29T15:46:44.126Z,36.7
2018-05-29T15:47:33.879Z,36.6
2018-05-29T15:48:24.240Z,36.4
2018-05-29T15:49:14.308Z,36.2
2018-05-29T15:50:04.081Z,36.1
2018-05-29T15:50:54.430Z,35.9
2018-05-29T15:51:44.473Z,35.8
2018-05-29T15:52:34.574Z,35.6
2018-05-29T15:53:25.114Z,35.5
2018-05-29T15:54:14.669Z,35.3
2018-05-29T15:55:04.736Z,35.2
2018-05-29T15:55:54.805Z,35.1
2018-05-29T15:56:44.888Z,34.9
2018-05-29T15:57:34.660Z,34.8
2018-05-29T15:58:24.425Z,34.6
2018-05-29T15:59:15.058Z,34.6
2018-05-29T16:00:05.212Z,34.4
2018-05-29T16:00:55.177Z,34.4
2018-05-29T16:01:45.242Z,34.2
2018-05-29T16:02:35.313Z,34
2018-05-29T16:03:25.384Z,33.9
2018-05-29T16:04:15.215Z,33.8
2018-05-29T16:05:05.513Z,33.6
2018-05-29T16:05:55.564Z,33.4
2018-05-29T16:06:45.665Z,33.3
2018-05-29T16:07:35.692Z,33.2
2018-05-29T16:08:25.520Z,33.1
2018-05-29T16:09:15.891Z,33
2018-05-29T16:10:05.619Z,32.9
2018-05-29T16:10:55.993Z,32.8
2018-05-29T16:11:46.046Z,32.6
2018-05-29T16:12:36.103Z,32.4
2018-05-29T16:13:25.871Z,32.3
2018-05-29T16:14:16.103Z,32.2
2018-05-29T16:15:06.028Z,32.1
2018-05-29T16:15:56.010Z,32
2018-05-29T16:16:46.210Z,31.8
2018-05-29T16:17:36.525Z,31.7
2018-05-29T16:18:25.409Z,31.6
2018-05-29T16:19:16.647Z,31.4
2018-05-29T16:20:06.427Z,31.3
2018-05-29T16:20:56.740Z,31.3
2018-05-29T16:21:46.856Z,31.1
2018-05-29T16:22:36.625Z,31.1
2018-05-29T16:23:26.680Z,30.9
2018-05-29T16:24:16.811Z,30.9
2018-05-29T16:25:06.557Z,30.8
2018-05-29T16:25:56.884Z,30.7
2018-05-29T16:26:47.147Z,30.6
2018-05-29T16:27:37.015Z,30.5
2018-05-29T16:28:27.384Z,30.4
2018-05-29T16:29:17.398Z,30.3
2018-05-29T16:30:07.482Z,30.2
2018-05-29T16:30:56.962Z,30.1
2018-05-29T16:31:47.329Z,29.9
2018-05-29T16:32:37.649Z,29.8
2018-05-29T16:33:27.689Z,29.8
2018-05-29T16:34:17.194Z,29.7
2018-05-29T16:35:07.844Z,29.6
2018-05-29T16:35:57.915Z,29.5
2018-05-29T16:36:47.673Z,29.4
2018-05-29T16:37:37.174Z,29.3
2018-05-29T16:38:27.819Z,29.2
2018-05-29T16:39:18.176Z,29.1
2018-05-29T16:40:08.214Z,29
2018-05-29T16:40:58.015Z,28.9
2018-05-29T16:41:48.354Z,28.8
2018-05-29T16:42:38.419Z,28.7
2018-05-29T16:43:28.494Z,28.6
2018-05-29T16:44:18.259Z,28.5
2018-05-29T16:45:08.628Z,28.4
2018-05-29T16:45:58.388Z,28.4
2018-05-29T16:46:48.710Z,28.3
2018-05-29T16:47:38.813Z,28.2
2018-05-29T16:48:28.863Z,28.1
2018-05-29T16:49:18.920Z,28
2018-05-29T16:50:09.019Z,27.9
2018-05-29T16:51:48.820Z,27.8
2018-05-29T16:52:38.289Z,27.7
2018-05-29T16:53:29.199Z,27.6
2018-05-29T16:54:19.274Z,27.5
2018-05-29T16:55:09.329Z,27.4
2018-05-29T16:55:59.387Z,27.3
2018-05-29T16:56:48.890Z,27.3
2018-05-29T16:57:39.512Z,27.2
2018-05-29T16:58:29.042Z,27.1
2018-05-29T16:59:19.425Z,27
2018-05-29T17:00:09.754Z,26.9
2018-05-29T17:00:59.766Z,26.9
2018-05-29T17:01:49.857Z,26.8
2018-05-29T17:02:39.949Z,26.8
2018-05-29T17:03:30.056Z,26.6
2018-05-29T17:04:20.076Z,26.6
2018-05-29T17:05:10.180Z,26.6
2018-05-29T17:05:59.915Z,26.4
2018-05-29T17:06:50.272Z,26.4
2018-05-29T17:07:39.734Z,26.3
2018-05-29T17:08:30.102Z,26.3
2018-05-29T17:09:20.465Z,26.1
2018-05-29T17:10:10.241Z,26.1
2018-05-29T17:11:00.569Z,26
2018-05-29T17:11:50.611Z,25.9
2018-05-29T17:12:40.388Z,25.8
2018-05-29T17:13:30.761Z,25.8
2018-05-29T17:14:20.804Z,25.7
2018-05-29T17:15:11.020Z,25.6
2018-05-29T17:16:00.931Z,25.5
2018-05-29T17:16:50.964Z,25.4
2018-05-29T17:17:41.023Z,25.4
2018-05-29T17:18:31.106Z,25.3
2018-05-29T17:19:21.150Z,25.3
2018-05-29T17:20:11.223Z,25.1
2018-05-29T17:21:00.998Z,25.1
2018-05-29T17:21:51.232Z,25
2018-05-29T17:22:41.408Z,24.9
2018-05-29T17:23:30.998Z,24.8
2018-05-29T17:24:21.561Z,24.8
2018-05-29T17:25:11.591Z,24.7
2018-05-29T17:26:01.693Z,24.6
2018-05-29T17:26:51.762Z,24.5
2018-05-29T17:27:41.789Z,24.4
2018-05-29T17:28:31.850Z,24.4
2018-05-29T17:29:21.969Z,24.3
2018-05-29T17:30:11.975Z,24.3
2018-05-29T17:31:02.073Z,24.2
2018-05-29T17:31:52.211Z,24.1
2018-05-29T17:32:42.186Z,24
2018-05-29T17:33:31.939Z,23.9
2018-05-29T17:34:22.306Z,23.9
2018-05-29T17:35:12.120Z,23.8
2018-05-29T17:36:01.867Z,23.7
2018-05-29T17:36:52.517Z,23.6
2018-05-29T17:37:42.591Z,23.6
2018-05-29T17:38:32.608Z,23.5
2018-05-29T17:39:22.693Z,23.4
2018-05-29T17:40:12.758Z,23.3
2018-05-29T17:41:02.857Z,23.3
2018-05-29T17:41:52.871Z,23.2
2018-05-29T17:42:42.965Z,23.1
2018-05-29T17:43:33.016Z,23
2018-05-29T17:44:22.785Z,22.9
2018-05-29T17:45:12.839Z,22.9
2018-05-29T17:46:02.652Z,22.8
2018-05-29T17:46:53.239Z,22.7
2018-05-29T17:47:43.304Z,22.6
2018-05-29T17:48:33.395Z,22.5
2018-05-29T17:49:23.174Z,22.5
2018-05-29T17:50:13.526Z,22.4
2018-05-29T17:51:03.283Z,22.3
2018-05-29T17:51:53.357Z,22.2
2018-05-29T17:52:43.685Z,22.1
2018-05-29T17:53:33.746Z,22.1
2018-05-29T17:54:23.818Z,21.9
2018-05-29T17:55:13.872Z,21.9
2018-05-29T17:56:03.963Z,21.8
2018-05-29T17:56:53.752Z,21.8
2018-05-29T17:57:43.517Z,21.6
2018-05-29T17:58:34.131Z,21.6
2018-05-29T17:59:23.908Z,21.5
2018-05-29T18:00:14.278Z,21.4
2018-05-29T18:01:04.324Z,21.3
2018-05-29T18:01:54.383Z,21.3
2018-05-29T18:02:44.034Z,21.2
2018-05-29T18:04:24.577Z,21.1
2018-05-29T18:05:14.629Z,21
2018-05-29T18:06:04.695Z,20.9
2018-05-29T18:06:54.743Z,20.9
2018-05-29T18:07:44.825Z,20.8
2018-05-29T18:08:34.598Z,20.8
2018-05-29T18:09:24.716Z,20.7
2018-05-29T18:10:15.009Z,20.6
2018-05-29T18:11:04.528Z,20.6
2018-05-29T18:11:55.200Z,20.5
2018-05-29T18:12:45.200Z,20.4
2018-05-29T18:13:35.261Z,20.3
2018-05-29T18:14:25.339Z,20.3
2018-05-29T18:15:15.399Z,20.2
2018-05-29T18:16:05.182Z,20.1
2018-05-29T18:16:55.535Z,20.1
2018-05-29T18:17:45.589Z,20
2018-05-29T18:18:35.114Z,20
2018-05-29T18:19:25.744Z,19.9
2018-05-29T18:20:15.812Z,19.9
2018-05-29T18:21:05.554Z,19.8
2018-05-29T18:21:55.916Z,19.8
2018-05-29T18:22:45.468Z,19.8
2018-05-29T18:23:36.028Z,19.7
2018-05-29T18:24:25.861Z,19.6
2018-05-29T18:25:15.938Z,19.6
2018-05-29T18:26:06.242Z,19.6
2018-05-29T18:26:56.288Z,19.5
2018-05-29T18:27:45.793Z,19.5
2018-05-29T18:28:36.140Z,19.4
2018-05-29T18:29:25.948Z,19.4
2018-05-29T18:30:16.536Z,19.4
2018-05-29T18:31:06.886Z,19.3
2018-05-29T18:31:56.707Z,19.3
2018-05-29T18:32:46.510Z,19.2
2018-05-29T18:33:36.242Z,19.2
2018-05-29T18:34:26.861Z,19.1
2018-05-29T18:35:16.938Z,19.1
2018-05-29T18:36:07.010Z,19
2018-05-29T18:36:57.033Z,19
2018-05-29T18:37:46.844Z,18.9
2018-05-29T18:38:37.165Z,18.9
2018-05-29T18:39:27.001Z,18.9
2018-05-29T18:40:17.031Z,18.8
2018-05-29T18:41:07.372Z,18.8
2018-05-29T18:41:56.860Z,18.8
2018-05-29T18:42:47.481Z,18.8
2018-05-29T18:44:27.722Z,18.6
2018-05-29T18:45:17.395Z,18.6
2018-05-29T18:46:07.761Z,18.6
2018-05-29T18:46:57.849Z,18.6
2018-05-29T18:47:48.026Z,18.5
2018-05-29T18:48:37.376Z,18.5
2018-05-29T18:49:28.095Z,18.4
2018-05-29T18:50:18.534Z,18.4
2018-05-29T18:51:08.125Z,18.4
2018-05-29T18:51:57.604Z,18.3
2018-05-29T18:52:48.244Z,18.3
2018-05-29T18:53:38.298Z,18.3
2018-05-29T18:54:28.409Z,18.3
2018-05-29T18:55:18.447Z,18.2
2018-05-29T18:56:08.516Z,18.2
2018-05-29T18:56:58.599Z,18.1
2018-05-29T18:57:48.069Z,18.1
2018-05-29T18:58:38.721Z,18
2018-05-29T18:59:28.498Z,18
2018-05-29T19:00:18.833Z,17.9
2018-05-29T19:01:08.874Z,17.9
2018-05-29T19:01:58.955Z,17.8
2018-05-29T19:02:49.034Z,17.8
2018-05-29T19:03:38.848Z,17.8
2018-05-29T19:04:28.663Z,17.8
2018-05-29T19:05:18.694Z,17.8
2018-05-29T19:06:09.291Z,17.7
2018-05-29T19:06:59.046Z,17.7
2018-05-29T19:07:49.383Z,17.6
2018-05-29T19:08:38.866Z,17.6
2018-05-29T19:09:29.247Z,17.6
2018-05-29T19:10:19.589Z,17.6
2018-05-29T19:11:09.392Z,17.6
2018-05-29T19:11:59.440Z,17.5
2018-05-29T19:12:49.484Z,17.5
2018-05-29T19:13:39.569Z,17.5
2018-05-29T19:14:29.664Z,17.5
2018-05-29T19:15:19.984Z,17.4
2018-05-29T19:16:10.023Z,17.4
2018-05-29T19:17:00.559Z,17.4
2018-05-29T19:17:49.619Z,17.4
2018-05-29T19:18:39.976Z,17.4
2018-05-29T19:19:30.036Z,17.4
2018-05-29T19:20:19.869Z,17.3
2018-05-29T19:21:10.156Z,17.3
2018-05-29T19:22:00.512Z,17.3
2018-05-29T19:22:50.856Z,17.3
2018-05-29T19:23:40.586Z,17.3
2018-05-29T19:24:30.383Z,17.3
2018-05-29T19:25:20.798Z,17.3
2018-05-29T19:26:10.790Z,17.2
2018-05-29T19:27:00.848Z,17.2
2018-05-29T19:27:50.638Z,17.2
2018-05-29T19:28:40.379Z,17.2
2018-05-29T19:29:30.773Z,17.2
2018-05-29T19:30:21.116Z,17.1
2018-05-29T19:31:10.625Z,17.1
2018-05-29T19:32:00.963Z,17.1
2018-05-29T19:32:51.292Z,17.1
2018-05-29T19:33:40.785Z,17.1
2018-05-29T19:34:31.435Z,17.1
2018-05-29T19:35:21.423Z,17.1
2018-05-29T19:36:11.286Z,17.1
2018-05-29T19:37:01.590Z,17.1
2018-05-29T19:37:51.669Z,17.1
2018-05-29T19:38:41.758Z,17.1
2018-05-29T19:42:02.004Z,16.9
2018-05-29T19:42:52.075Z,16.9
2018-05-29T19:43:41.827Z,16.9
2018-05-29T19:44:31.919Z,16.9
2018-05-29T19:45:22.265Z,16.9
2018-05-29T19:46:12.296Z,16.9
2018-05-29T19:47:02.407Z,16.9
2018-05-29T19:47:52.502Z,16.9
2018-05-29T19:48:42.219Z,16.9
2018-05-29T19:49:32.588Z,16.9
2018-05-29T19:50:22.641Z,16.9
2018-05-29T19:51:12.554Z,16.9
2018-05-29T19:52:02.462Z,16.9
2018-05-29T19:52:52.251Z,16.9
2018-05-29T19:53:42.894Z,16.8
2018-05-29T19:54:32.688Z,16.8
2018-05-29T19:55:23.015Z,16.8
2018-05-29T19:56:12.781Z,16.8
2018-05-29T19:57:02.542Z,16.8
2018-05-29T19:57:53.217Z,16.8
2018-05-29T19:58:42.715Z,16.8
2018-05-29T19:59:33.356Z,16.8
2018-05-29T20:00:23.144Z,16.8
2018-05-29T20:01:13.700Z,16.8
2018-05-29T20:02:03.531Z,16.8
2018-05-29T20:02:53.313Z,16.7
2018-05-29T20:03:43.072Z,16.7
2018-05-29T20:04:33.712Z,16.7
2018-05-29T20:05:23.487Z,16.7
2018-05-29T20:06:13.835Z,16.6
2018-05-29T20:07:04.051Z,16.6
2018-05-29T20:07:53.953Z,16.6
2018-05-29T20:08:44.047Z,16.6
2018-05-29T20:09:33.818Z,16.6
2018-05-29T20:10:24.183Z,16.6
2018-05-29T20:11:13.963Z,16.6
2018-05-29T20:12:03.980Z,16.6
2018-05-29T20:12:53.782Z,16.5
2018-05-29T20:13:44.445Z,16.5
2018-05-29T20:14:34.193Z,16.5
2018-05-29T20:15:24.533Z,16.5
2018-05-29T20:16:14.603Z,16.5
2018-05-29T20:17:04.631Z,16.4
2018-05-29T20:17:54.414Z,16.4
2018-05-29T20:18:44.480Z,16.4
2018-05-29T20:19:34.562Z,16.4
2018-05-29T20:20:24.879Z,16.4
2018-05-29T20:21:14.986Z,16.4
2018-05-29T20:22:05.025Z,16.4
2018-05-29T20:22:54.804Z,16.3
2018-05-29T20:23:44.905Z,16.3
2018-05-29T20:24:35.269Z,16.3
2018-05-29T20:25:25.317Z,16.3
2018-05-29T20:26:14.831Z,16.3
2018-05-29T20:27:05.147Z,16.3
2018-05-29T20:27:55.492Z,16.3
2018-05-29T20:28:45.292Z,16.2
2018-05-29T20:29:35.360Z,16.2
2018-05-29T20:30:25.383Z,16.2
2018-05-29T20:31:15.776Z,16.2
2018-05-29T20:32:05.243Z,16.1
2018-05-29T20:32:55.311Z,16.1
2018-05-29T20:33:45.922Z,16.1
2018-05-29T20:34:36.033Z,16.1
2018-05-29T20:35:25.270Z,16.1
2018-05-29T20:36:15.643Z,16
2018-05-29T20:37:05.203Z,16
2018-05-29T20:37:55.498Z,16
2018-05-29T20:38:46.564Z,16
2018-05-29T20:39:36.377Z,15.9
2018-05-29T20:40:26.432Z,15.9
2018-05-29T20:41:15.948Z,15.9
2018-05-29T20:42:06.580Z,15.9
2018-05-29T20:42:56.664Z,15.9
2018-05-29T20:43:46.824Z,15.9
2018-05-29T20:44:36.504Z,15.9
2018-05-29T20:45:26.841Z,15.9
2018-05-29T20:46:16.919Z,15.9
2018-05-29T20:47:06.670Z,15.9
2018-05-29T20:47:57.003Z,15.8
2018-05-29T20:48:46.810Z,15.8
2018-05-29T20:49:36.828Z,15.8
2018-05-29T20:50:26.943Z,15.8
2018-05-29T20:51:17.301Z,15.8
2018-05-29T20:52:07.070Z,15.8
2018-05-29T20:52:57.097Z,15.8
2018-05-29T20:53:47.696Z,15.8
2018-05-29T20:54:37.241Z,15.8
2018-05-29T20:55:27.871Z,15.8
2018-05-29T20:56:17.417Z,15.7
2018-05-29T20:57:07.416Z,15.7
2018-05-29T20:57:57.815Z,15.7
2018-05-29T20:58:47.564Z,15.6
2018-05-29T20:59:37.631Z,15.6
2018-05-29T21:00:27.686Z,15.6
2018-05-29T21:01:18.062Z,15.6
2018-05-29T21:02:08.108Z,15.6
2018-05-29T21:02:58.135Z,15.6
2018-05-29T21:03:48.236Z,15.6
2018-05-29T21:04:38.307Z,15.6
2018-05-29T21:05:28.401Z,15.6
2018-05-29T21:06:18.426Z,15.6
2018-05-29T21:07:08.500Z,15.6
2018-05-29T21:07:58.581Z,15.6
2018-05-29T21:08:48.624Z,15.6
2018-05-29T21:09:38.744Z,15.6
2018-05-29T21:10:28.156Z,15.6
2018-05-29T21:11:18.511Z,15.6
2018-05-29T21:12:08.887Z,15.6
2018-05-29T21:12:58.647Z,15.5
2018-05-29T21:13:48.978Z,15.5
2018-05-29T21:14:39.069Z,15.5
2018-05-29T21:15:28.848Z,15.5
2018-05-29T21:16:18.298Z,15.5
2018-05-29T21:17:09.245Z,15.5
2018-05-29T21:17:59.298Z,15.5
2018-05-29T21:18:49.119Z,15.5
2018-05-29T21:19:39.469Z,15.5
2018-05-29T21:20:29.479Z,15.5
2018-05-29T21:21:19.514Z,15.5
2018-05-29T21:22:09.683Z,15.5
2018-05-29T21:22:59.676Z,15.4
2018-05-29T21:23:49.437Z,15.4
2018-05-29T21:24:39.780Z,15.5
2018-05-29T21:25:29.349Z,15.4
2018-05-29T21:26:19.932Z,15.4
2018-05-29T21:27:10.008Z,15.4
2018-05-29T21:27:59.761Z,15.4
2018-05-29T21:28:49.825Z,15.4
2018-05-29T21:29:40.171Z,15.4
2018-05-29T21:30:30.231Z,15.4
2018-05-29T21:31:20.307Z,15.4
2018-05-29T21:32:10.375Z,15.4
2018-05-29T21:33:00.433Z,15.3
2018-05-29T21:33:50.207Z,15.3
2018-05-29T21:34:40.278Z,15.3
2018-05-29T21:35:30.607Z,15.3
2018-05-29T21:36:20.695Z,15.3
2018-05-29T21:37:10.753Z,15.3
2018-05-29T21:38:00.790Z,15.3
2018-05-29T21:38:50.857Z,15.2
2018-05-29T21:39:40.925Z,15.2
2018-05-29T21:40:30.988Z,15.2
2018-05-29T21:41:20.782Z,15.2
2018-05-29T21:42:11.107Z,15.2
2018-05-29T21:43:00.896Z,15.1
2018-05-29T21:43:51.236Z,15.1
2018-05-29T21:44:41.317Z,15.1
2018-05-29T21:45:31.362Z,15.1
2018-05-29T21:46:21.453Z,15.1
2018-05-29T21:47:11.485Z,15.1
2018-05-29T21:48:01.569Z,15
2018-05-29T21:48:51.350Z,14.9
2018-05-29T21:49:41.716Z,14.9
2018-05-29T21:50:31.456Z,14.9
2018-05-29T21:51:21.843Z,14.8
2018-05-29T21:52:11.892Z,14.8
2018-05-29T21:53:01.935Z,14.8
2018-05-29T21:53:52.034Z,14.7
2018-05-29T21:54:41.785Z,14.6
2018-05-29T21:55:32.125Z,14.6
2018-05-29T21:56:21.918Z,14.6
2018-05-29T21:57:12.247Z,14.5
2018-05-29T21:58:01.772Z,14.5
2018-05-29T21:58:52.390Z,14.4
2018-05-29T21:59:42.162Z,14.4
2018-05-29T22:00:32.238Z,14.4
2018-05-29T22:01:22.599Z,14.3
2018-05-29T22:02:12.348Z,14.3
2018-05-29T22:03:02.707Z,14.3
2018-05-29T22:03:52.787Z,14.3
2018-05-29T22:04:42.277Z,14.2
2018-05-29T22:05:32.630Z,14.2
2018-05-29T22:06:22.405Z,14.2
2018-05-29T22:07:12.448Z,14.1
2018-05-29T22:08:02.840Z,14.1
2018-05-29T22:08:52.607Z,14.1
2018-05-29T22:09:43.235Z,14
2018-05-29T22:10:33.275Z,14
2018-05-29T22:11:23.342Z,13.9
2018-05-29T22:12:13.403Z,13.9
2018-05-29T22:13:03.474Z,13.9
2018-05-29T22:13:53.272Z,13.8
2018-05-29T22:14:43.143Z,13.8
2018-05-29T22:15:33.682Z,13.8
2018-05-29T22:16:23.719Z,13.8
2018-05-29T22:17:13.791Z,13.8
2018-05-29T22:18:03.871Z,13.7
2018-05-29T22:18:53.907Z,13.6
2018-05-29T22:19:43.416Z,13.6
2018-05-29T22:20:34.047Z,13.6
2018-05-29T22:21:24.164Z,13.6
2018-05-29T22:22:13.894Z,13.5
2018-05-29T22:23:03.960Z,13.6
2018-05-29T22:23:53.767Z,13.5
2018-05-29T22:24:44.352Z,13.5
2018-05-29T22:25:34.447Z,13.5
2018-05-29T22:26:24.524Z,13.4
2018-05-29T22:27:14.564Z,13.4
2018-05-29T22:28:04.630Z,13.4
2018-05-29T22:28:54.684Z,13.4
2018-05-29T22:29:44.734Z,13.4
2018-05-29T22:30:34.766Z,13.3
2018-05-29T22:31:24.607Z,13.3
2018-05-29T22:32:14.973Z,13.3
2018-05-29T22:33:05.004Z,13.3
2018-05-29T22:33:55.091Z,13.2
2018-05-29T22:34:44.846Z,13.2
2018-05-29T22:35:35.187Z,13.2
2018-05-29T22:36:24.978Z,13.1
2018-05-29T22:37:15.307Z,13.1
2018-05-29T22:38:05.417Z,13
2018-05-29T22:38:55.438Z,13
2018-05-29T22:39:45.525Z,12.9
2018-05-29T22:40:35.552Z,12.9
2018-05-29T22:41:25.632Z,12.9
2018-05-29T22:42:15.710Z,12.8
2018-05-29T22:43:05.499Z,12.8
2018-05-29T22:43:55.588Z,12.8
2018-05-29T22:44:45.884Z,12.8
2018-05-29T22:45:35.369Z,12.8
2018-05-29T22:46:25.738Z,12.8
2018-05-29T22:47:15.509Z,12.7
2018-05-29T22:48:06.140Z,12.6
2018-05-29T22:48:56.233Z,12.6
2018-05-29T22:49:46.278Z,12.6
2018-05-29T22:50:36.071Z,12.6
2018-05-29T22:51:26.420Z,12.6
2018-05-29T22:52:16.458Z,12.6
2018-05-29T22:53:06.243Z,12.6
2018-05-29T22:53:56.359Z,12.6
2018-05-29T22:54:46.397Z,12.5
2018-05-29T22:55:36.179Z,12.5
2018-05-29T22:56:26.805Z,12.4
2018-05-29T22:57:16.850Z,12.4
2018-05-29T22:58:06.926Z,12.4
2018-05-29T22:58:56.684Z,12.4
2018-05-29T22:59:46.758Z,12.4
2018-05-29T23:00:37.105Z,12.3
2018-05-29T23:01:27.176Z,12.3
2018-05-29T23:02:16.960Z,12.3
2018-05-29T23:03:07.018Z,12.3
2018-05-29T23:03:57.340Z,12.3
2018-05-29T23:04:47.415Z,12.3
2018-05-29T23:05:37.323Z,12.3
2018-05-29T23:06:27.262Z,12.3
2018-05-29T23:07:17.613Z,12.3
2018-05-29T23:08:07.392Z,12.2
2018-05-29T23:08:57.452Z,12.2
2018-05-29T23:09:47.553Z,12.1
2018-05-29T23:10:37.589Z,12.1
2018-05-29T23:11:27.934Z,12.1
2018-05-29T23:12:17.990Z,12.1
2018-05-29T23:13:08.081Z,12.1
2018-05-29T23:13:58.121Z,12.1
2018-05-29T23:14:48.191Z,12.1
2018-05-29T23:15:37.959Z,12.1
2018-05-29T23:16:28.307Z,12
2018-05-29T23:17:18.376Z,12
2018-05-29T23:18:07.878Z,12
2018-05-29T23:18:58.493Z,12
2018-05-29T23:19:48.576Z,12
2018-05-29T23:20:38.049Z,11.9
2018-05-29T23:21:28.411Z,11.9
2018-05-29T23:22:18.739Z,11.9
2018-05-29T23:23:08.811Z,11.9
2018-05-29T23:23:58.887Z,11.9
2018-05-29T23:24:48.643Z,11.9
2018-05-29T23:25:39.015Z,11.9
2018-05-29T23:26:29.105Z,11.8
2018-05-29T23:27:18.852Z,11.8
2018-05-29T23:28:09.193Z,11.8
2018-05-29T23:28:58.703Z,11.8
2018-05-29T23:29:49.116Z,11.8
2018-05-29T23:30:39.398Z,11.8
2018-05-29T23:31:29.439Z,11.8
2018-05-29T23:32:18.962Z,11.8
2018-05-29T23:33:09.599Z,11.8
2018-05-29T23:33:59.358Z,11.8
2018-05-29T23:34:49.427Z,11.8
2018-05-29T23:35:39.798Z,11.7
2018-05-29T23:36:29.553Z,11.7
2018-05-29T23:37:19.890Z,11.6
2018-05-29T23:38:09.975Z,11.6
2018-05-29T23:39:00.024Z,11.6
2018-05-29T23:39:49.821Z,11.6
2018-05-29T23:40:40.152Z,11.6
2018-05-29T23:41:30.202Z,11.6
2018-05-29T23:42:20.002Z,11.6
2018-05-29T23:43:10.344Z,11.6
2018-05-29T23:44:00.376Z,11.5
2018-05-29T23:44:50.199Z,11.5
2018-05-29T23:45:40.521Z,11.5
2018-05-29T23:46:30.573Z,11.5
2018-05-29T23:47:20.651Z,11.4
2018-05-29T23:48:10.717Z,11.4
2018-05-29T23:49:00.778Z,11.4
2018-05-29T23:49:50.854Z,11.4
2018-05-29T23:50:40.917Z,11.4
2018-05-29T23:51:30.969Z,11.4
2018-05-29T23:52:21.025Z,11.4
2018-05-29T23:53:10.826Z,11.4
2018-05-29T23:54:01.152Z,11.3
2018-05-29T23:54:50.662Z,11.3
2018-05-29T23:55:41.328Z,11.3
2018-05-29T23:56:31.366Z,11.3
2018-05-29T23:57:21.422Z,11.3
2018-05-29T23:58:11.493Z,11.3
2018-05-29T23:59:01.244Z,11.2
2018-05-29T23:59:51.598Z,11.2
